createdAt,value
2018-03-19T00:02:11.285Z,84.10
2018-03-19T00:04:38.921Z,84.30
2018-03-19T00:07:06.589Z,84.10
2018-03-19T00:09:34.441Z,84.60
2018-03-19T00:12:02.121Z,84.10
2018-03-19T00:14:29.857Z,83.80
2018-03-19T00:16:58.666Z,83.90
2018-03-19T00:19:26.466Z,83.40
2018-03-19T00:21:54.069Z,83.90
2018-03-19T00:24:21.651Z,83.20
2018-03-19T00:26:49.223Z,84.10
2018-03-19T00:29:16.968Z,83.20
2018-03-19T00:31:45.073Z,83.50
2018-03-19T00:34:13.470Z,83.30
2018-03-19T00:36:58.589Z,83.30
2018-03-19T00:39:26.425Z,83.00
2018-03-19T00:41:54.320Z,83.30
2018-03-19T00:44:21.969Z,84.00
2018-03-19T00:46:49.697Z,83.70
2018-03-19T00:49:17.307Z,83.70
2018-03-19T00:51:44.961Z,83.50
2018-03-19T00:54:12.677Z,83.20
2018-03-19T00:56:40.466Z,83.40
2018-03-19T00:59:08.183Z,83.60
2018-03-19T01:01:36.513Z,83.70
2018-03-19T01:04:04.276Z,83.60
2018-03-19T01:06:31.997Z,84.30
2018-03-19T01:08:59.709Z,84.10
2018-03-19T01:11:27.542Z,84.60
2018-03-19T01:13:55.338Z,83.20
2018-03-19T01:16:23.226Z,84.60
2018-03-19T01:18:51.045Z,84.40
2018-03-19T01:21:18.737Z,83.40
2018-03-19T01:23:46.694Z,83.80
2018-03-19T01:26:14.254Z,83.50
2018-03-19T01:28:42.122Z,83.30
2018-03-19T01:31:09.990Z,84.20
2018-03-19T01:33:37.589Z,83.30
2018-03-19T01:36:05.176Z,83.20
2018-03-19T01:38:32.912Z,84.00
2018-03-19T01:41:00.631Z,83.50
2018-03-19T01:43:28.471Z,84.20
2018-03-19T01:45:56.154Z,83.70
2018-03-19T01:48:23.812Z,83.70
2018-03-19T01:50:51.395Z,84.30
2018-03-19T01:53:19.188Z,83.40
2018-03-19T01:56:04.502Z,84.20
2018-03-19T01:58:32.081Z,84.60
2018-03-19T02:00:59.728Z,83.30
2018-03-19T02:03:27.639Z,83.00
2018-03-19T02:05:56.027Z,83.20
2018-03-19T02:08:23.726Z,83.20
2018-03-19T02:10:51.602Z,83.00
2018-03-19T02:13:19.268Z,83.20
2018-03-19T02:15:46.813Z,83.00
2018-03-19T02:18:14.637Z,83.50
2018-03-19T02:20:42.397Z,83.80
2018-03-19T02:23:10.257Z,83.90
2018-03-19T02:25:55.434Z,83.00
2018-03-19T02:28:23.112Z,83.10
2018-03-19T02:30:50.854Z,83.20
2018-03-19T02:33:18.766Z,83.10
2018-03-19T02:35:46.436Z,82.80
2018-03-19T02:38:14.004Z,82.40
2018-03-19T02:40:41.754Z,82.40
2018-03-19T02:43:09.425Z,83.00
2018-03-19T02:45:37.050Z,83.20
2018-03-19T02:48:22.361Z,83.30
2018-03-19T02:50:50.025Z,82.30
2018-03-19T02:53:18.092Z,83.90
2018-03-19T02:55:45.803Z,82.90
2018-03-19T02:58:13.785Z,82.40
2018-03-19T03:00:41.569Z,82.60
2018-03-19T03:03:09.517Z,82.30
2018-03-19T03:05:37.152Z,82.00
2018-03-19T03:08:04.867Z,82.60
2018-03-19T03:10:32.780Z,83.10
2018-03-19T03:13:00.598Z,82.70
2018-03-19T03:15:28.355Z,83.70
2018-03-19T03:17:56.174Z,82.80
2018-03-19T03:20:24.196Z,82.90
2018-03-19T03:22:52.114Z,83.30
2018-03-19T03:25:19.971Z,82.60
2018-03-19T03:27:47.795Z,82.50
2018-03-19T03:30:15.436Z,82.40
2018-03-19T03:32:43.285Z,83.30
2018-03-19T03:35:10.845Z,83.20
2018-03-19T03:37:38.591Z,83.20
2018-03-19T03:40:06.181Z,82.60
2018-03-19T03:42:33.958Z,82.60
2018-03-19T03:45:01.510Z,83.20
2018-03-19T03:47:29.513Z,83.10
2018-03-19T03:49:57.965Z,82.70
2018-03-19T03:52:25.557Z,82.60
2018-03-19T03:54:53.137Z,83.20
2018-03-19T03:57:20.884Z,82.40
2018-03-19T03:59:48.758Z,82.10
2018-03-19T04:02:16.509Z,82.40
2018-03-19T04:04:45.140Z,82.30
2018-03-19T04:07:12.966Z,82.20
2018-03-19T04:09:40.550Z,83.10
2018-03-19T04:12:08.203Z,83.10
2018-03-19T04:14:35.801Z,82.60
2018-03-19T04:17:03.409Z,83.20
2018-03-19T04:19:30.982Z,83.30
2018-03-19T04:21:58.923Z,83.30
2018-03-19T04:24:26.503Z,83.20
2018-03-19T04:26:54.057Z,83.60
2018-03-19T04:29:21.626Z,82.90
2018-03-19T04:31:49.674Z,83.10
2018-03-19T04:34:17.338Z,83.40
2018-03-19T04:36:45.357Z,84.20
2018-03-19T04:39:13.605Z,84.00
2018-03-19T04:41:41.236Z,83.20
2018-03-19T04:44:08.949Z,82.60
2018-03-19T04:46:36.801Z,82.60
2018-03-19T04:49:04.357Z,83.00
2018-03-19T04:51:31.914Z,83.30
2018-03-19T04:53:59.836Z,83.90
2018-03-19T04:56:28.225Z,83.20
2018-03-19T04:58:55.798Z,83.10
2018-03-19T05:01:23.810Z,83.40
2018-03-19T05:03:51.491Z,83.00
2018-03-19T05:06:20.007Z,83.60
2018-03-19T05:08:47.674Z,83.50
2018-03-19T05:11:15.306Z,82.70
2018-03-19T05:13:42.945Z,82.50
2018-03-19T05:16:10.790Z,83.50
2018-03-19T05:18:38.459Z,82.80
2018-03-19T05:21:06.282Z,82.90
2018-03-19T05:23:34.183Z,82.40
2018-03-19T05:26:01.753Z,81.80
2018-03-19T05:28:29.313Z,82.50
2018-03-19T05:30:57.020Z,81.90
2018-03-19T05:33:24.599Z,82.40
2018-03-19T05:35:52.485Z,81.70
2018-03-19T05:38:20.077Z,81.60
2018-03-19T05:40:47.959Z,82.20
2018-03-19T05:43:15.516Z,82.00
2018-03-19T05:45:43.551Z,82.60
2018-03-19T05:48:11.235Z,82.90
2018-03-19T05:50:39.559Z,82.80
2018-03-19T05:53:07.533Z,82.70
2018-03-19T05:55:35.207Z,82.30
2018-03-19T05:58:02.764Z,81.70
2018-03-19T06:00:30.426Z,81.70
2018-03-19T06:02:58.055Z,81.80
2018-03-19T06:05:25.793Z,82.70
2018-03-19T06:07:53.381Z,82.50
2018-03-19T06:10:21.181Z,82.10
2018-03-19T06:12:49.066Z,82.00
2018-03-19T06:15:17.518Z,81.80
2018-03-19T06:17:45.238Z,81.60
2018-03-19T06:20:12.820Z,82.20
2018-03-19T06:22:40.781Z,81.60
2018-03-19T06:25:08.609Z,81.00
2018-03-19T06:27:37.003Z,81.10
2018-03-19T06:30:04.630Z,81.80
2018-03-19T06:32:32.365Z,81.30
2018-03-19T06:35:00.034Z,81.50
2018-03-19T06:37:27.983Z,80.20
2018-03-19T06:39:55.552Z,80.90
2018-03-19T06:42:23.400Z,80.00
2018-03-19T06:44:51.002Z,80.30
2018-03-19T06:47:18.562Z,80.20
2018-03-19T06:49:47.244Z,79.80
2018-03-19T06:52:14.857Z,79.80
2018-03-19T06:54:42.406Z,78.90
2018-03-19T06:57:10.422Z,78.60
2018-03-19T06:59:38.259Z,79.00
2018-03-19T07:02:05.959Z,77.70
2018-03-19T07:04:34.282Z,77.30
2018-03-19T07:07:01.885Z,77.30
2018-03-19T07:09:29.429Z,77.90
2018-03-19T07:11:57.003Z,77.40
2018-03-19T07:14:24.628Z,77.00
2018-03-19T07:16:52.276Z,76.30
2018-03-19T07:19:20.174Z,77.60
2018-03-19T07:21:48.047Z,77.30
2018-03-19T07:24:15.599Z,77.40
2018-03-19T07:26:43.439Z,76.80
2018-03-19T07:29:11.197Z,77.30
2018-03-19T07:31:39.238Z,76.70
2018-03-19T07:34:06.789Z,77.10
2018-03-19T07:36:35.149Z,76.20
2018-03-19T07:39:02.702Z,76.20
2018-03-19T07:41:31.181Z,76.40
2018-03-19T07:43:58.794Z,76.30
2018-03-19T07:46:26.513Z,75.80
2018-03-19T07:48:55.118Z,76.10
2018-03-19T07:51:23.033Z,76.10
2018-03-19T07:53:50.644Z,75.80
2018-03-19T07:56:18.502Z,75.90
2018-03-19T07:58:46.098Z,76.20
2018-03-19T08:01:13.853Z,76.20
2018-03-19T08:03:41.429Z,75.00
2018-03-19T08:06:09.630Z,76.70
2018-03-19T08:08:37.273Z,76.50
2018-03-19T08:11:04.885Z,76.10
2018-03-19T08:13:32.473Z,76.30
2018-03-19T08:16:00.026Z,76.20
2018-03-19T08:18:27.585Z,76.30
2018-03-19T08:20:55.166Z,75.80
2018-03-19T08:23:22.719Z,75.60
2018-03-19T08:25:50.285Z,75.10
2018-03-19T08:28:18.361Z,74.90
2018-03-19T08:30:45.914Z,75.20
2018-03-19T08:33:13.851Z,74.50
2018-03-19T08:35:41.476Z,75.60
2018-03-19T08:38:09.081Z,75.50
2018-03-19T08:40:36.645Z,76.00
2018-03-19T08:43:04.249Z,76.00
2018-03-19T08:45:31.794Z,76.10
2018-03-19T08:48:00.158Z,74.30
2018-03-19T08:50:27.785Z,74.30
2018-03-19T08:52:55.523Z,73.80
2018-03-19T08:55:23.239Z,74.00
2018-03-19T08:57:50.894Z,74.60
2018-03-19T09:00:18.451Z,73.80
2018-03-19T09:02:46.002Z,74.00
2018-03-19T09:05:13.853Z,73.60
2018-03-19T09:07:41.409Z,73.20
2018-03-19T09:10:08.978Z,74.70
2018-03-19T09:12:36.584Z,72.00
2018-03-19T09:15:04.147Z,70.60
2018-03-19T09:17:32.547Z,71.10
2018-03-19T09:20:00.802Z,71.00
2018-03-19T09:22:28.353Z,72.90
2018-03-19T09:24:56.951Z,69.40
2018-03-19T09:27:24.541Z,69.40
2018-03-19T09:29:52.473Z,71.20
2018-03-19T09:32:20.070Z,72.10
2018-03-19T09:34:47.901Z,70.50
2018-03-19T09:37:15.450Z,70.90
2018-03-19T09:39:43.180Z,71.10
2018-03-19T09:42:10.758Z,70.80
2018-03-19T09:44:38.443Z,71.80
2018-03-19T09:47:05.997Z,71.70
2018-03-19T09:49:33.650Z,70.30
2018-03-19T09:52:01.967Z,71.50
2018-03-19T09:54:29.697Z,71.50
2018-03-19T09:56:57.590Z,72.00
2018-03-19T09:59:25.965Z,70.10
2018-03-19T10:01:53.766Z,70.00
2018-03-19T10:04:21.419Z,69.30
2018-03-19T10:06:49.087Z,70.30
2018-03-19T10:09:16.634Z,70.80
2018-03-19T10:11:44.595Z,70.90
2018-03-19T10:14:12.469Z,70.80
2018-03-19T10:16:40.102Z,69.60
2018-03-19T10:19:07.699Z,70.10
2018-03-19T10:21:35.254Z,70.40
2018-03-19T10:24:03.084Z,70.80
2018-03-19T10:26:30.913Z,70.10
2018-03-19T10:28:58.487Z,71.20
2018-03-19T10:31:26.298Z,71.00
2018-03-19T10:33:53.886Z,71.30
2018-03-19T10:36:21.441Z,70.30
2018-03-19T10:38:49.754Z,69.80
2018-03-19T10:41:17.337Z,69.80
2018-03-19T10:43:45.226Z,69.60
2018-03-19T10:46:12.770Z,70.00
2018-03-19T10:48:40.364Z,69.20
2018-03-19T10:51:08.683Z,70.90
2018-03-19T10:53:36.240Z,70.90
2018-03-19T10:56:03.828Z,70.60
2018-03-19T10:58:31.542Z,70.40
2018-03-19T11:01:05.366Z,70.90
2018-03-19T11:03:33.073Z,71.00
2018-03-19T11:06:06.456Z,71.30
2018-03-19T11:08:34.818Z,71.40
2018-03-19T11:11:02.542Z,71.40
2018-03-19T11:13:30.133Z,70.60
2018-03-19T11:15:58.050Z,70.30
2018-03-19T11:18:25.983Z,71.30
2018-03-19T11:20:53.577Z,71.90
2018-03-19T11:23:21.250Z,71.60
2018-03-19T11:25:48.798Z,71.30
2018-03-19T11:28:17.278Z,71.00
2018-03-19T11:30:45.863Z,71.30
2018-03-19T11:33:13.546Z,71.30
2018-03-19T11:35:41.164Z,70.80
2018-03-19T11:38:08.906Z,69.80
2018-03-19T11:40:37.257Z,70.50
2018-03-19T11:43:05.034Z,70.50
2018-03-19T11:45:32.603Z,71.20
2018-03-19T11:48:00.154Z,71.10
2018-03-19T11:50:27.766Z,71.40
2018-03-19T11:52:56.279Z,70.50
2018-03-19T11:55:23.858Z,69.70
2018-03-19T11:57:51.455Z,71.60
2018-03-19T12:00:20.107Z,71.50
2018-03-19T12:02:47.681Z,71.40
2018-03-19T12:05:15.630Z,71.50
2018-03-19T12:07:43.618Z,71.20
2018-03-19T12:10:11.935Z,70.20
2018-03-19T12:12:39.677Z,70.10
2018-03-19T12:15:08.059Z,71.90
2018-03-19T12:17:35.645Z,71.90
2018-03-19T12:20:03.234Z,72.00
2018-03-19T12:22:30.790Z,71.70
2018-03-19T12:24:58.393Z,72.30
2018-03-19T12:27:25.982Z,71.80
2018-03-19T12:29:53.835Z,71.90
2018-03-19T12:32:21.403Z,72.10
2018-03-19T12:34:49.601Z,71.70
2018-03-19T12:37:17.159Z,70.90
2018-03-19T12:39:44.716Z,70.80
2018-03-19T12:42:12.365Z,71.40
2018-03-19T12:44:39.914Z,71.90
2018-03-19T12:47:07.646Z,72.20
2018-03-19T12:49:35.230Z,72.10
2018-03-19T12:52:02.778Z,71.90
2018-03-19T12:54:30.322Z,72.90
2018-03-19T12:56:57.981Z,73.90
2018-03-19T12:59:25.527Z,73.70
2018-03-19T13:01:53.334Z,72.70
2018-03-19T13:04:21.138Z,73.50
2018-03-19T13:06:49.051Z,72.60
2018-03-19T13:09:16.607Z,72.70
2018-03-19T13:11:44.195Z,73.00
2018-03-19T13:14:11.757Z,73.30
2018-03-19T13:16:39.431Z,71.90
2018-03-19T13:19:07.026Z,73.10
2018-03-19T13:21:34.578Z,72.10
2018-03-19T13:24:02.147Z,72.00
2018-03-19T13:26:29.741Z,72.70
2018-03-19T13:28:57.393Z,72.80
2018-03-19T13:31:25.255Z,71.80
2018-03-19T13:33:52.843Z,72.90
2018-03-19T13:36:20.787Z,73.00
2018-03-19T13:38:48.451Z,73.50
2018-03-19T13:41:16.282Z,74.20
2018-03-19T13:43:43.992Z,74.40
2018-03-19T13:46:11.718Z,74.30
2018-03-19T13:48:39.304Z,73.90
2018-03-19T13:51:07.094Z,74.80
2018-03-19T13:53:34.657Z,74.50
2018-03-19T13:56:03.023Z,75.60
2018-03-19T13:58:30.579Z,75.60
2018-03-19T14:00:58.144Z,76.00
2018-03-19T14:03:25.843Z,75.50
2018-03-19T14:05:53.402Z,75.40
2018-03-19T14:08:21.077Z,75.50
2018-03-19T14:10:49.068Z,75.90
2018-03-19T14:13:16.711Z,75.90
2018-03-19T14:15:44.544Z,76.00
2018-03-19T14:18:13.370Z,75.00
2018-03-19T14:20:41.251Z,74.90
2018-03-19T14:23:08.819Z,76.40
2018-03-19T14:25:36.782Z,76.10
2018-03-19T14:28:04.449Z,76.50
2018-03-19T14:30:32.165Z,76.10
2018-03-19T14:33:00.194Z,76.20
2018-03-19T14:35:27.756Z,76.00
2018-03-19T14:37:55.505Z,77.10
2018-03-19T14:40:23.447Z,76.90
2018-03-19T14:42:51.045Z,77.30
2018-03-19T14:45:19.400Z,76.90
2018-03-19T14:47:47.535Z,77.30
2018-03-19T14:50:15.467Z,77.30
2018-03-19T14:52:43.933Z,77.00
2018-03-19T14:55:11.944Z,76.90
2018-03-19T14:57:39.867Z,77.90
2018-03-19T15:00:08.248Z,76.90
2018-03-19T15:02:35.856Z,76.90
2018-03-19T15:05:03.671Z,77.70
2018-03-19T15:07:31.249Z,77.60
2018-03-19T15:09:58.966Z,78.10
2018-03-19T15:12:26.879Z,77.90
2018-03-19T15:14:55.249Z,78.30
2018-03-19T15:17:22.992Z,78.30
2018-03-19T15:19:50.653Z,78.30
2018-03-19T15:22:18.689Z,79.10
2018-03-19T15:24:46.285Z,78.60
2018-03-19T15:27:13.874Z,79.50
2018-03-19T15:29:42.366Z,79.90
2018-03-19T15:32:10.461Z,79.10
2018-03-19T15:34:38.227Z,78.60
2018-03-19T15:37:05.809Z,79.50
2018-03-19T15:39:33.625Z,79.50
2018-03-19T15:42:01.190Z,79.60
2018-03-19T15:44:29.066Z,79.60
2018-03-19T15:46:57.245Z,79.70
2018-03-19T15:49:24.973Z,79.60
2018-03-19T15:51:52.658Z,80.00
2018-03-19T15:54:20.428Z,80.10
2018-03-19T15:56:47.999Z,80.30
2018-03-19T15:59:15.839Z,80.70
2018-03-19T16:01:44.146Z,80.20
2018-03-19T16:04:11.982Z,81.00
2018-03-19T16:06:39.862Z,80.60
2018-03-19T16:09:07.481Z,80.40
2018-03-19T16:11:35.176Z,81.20
2018-03-19T16:14:02.837Z,82.00
2018-03-19T16:16:30.703Z,81.20
2018-03-19T16:18:58.678Z,81.60
2018-03-19T16:21:26.435Z,82.00
2018-03-19T16:23:54.135Z,82.20
2018-03-19T16:26:22.383Z,81.00
2018-03-19T16:28:50.029Z,81.60
2018-03-19T16:31:17.955Z,82.10
2018-03-19T16:33:46.341Z,82.20
2018-03-19T16:36:13.912Z,82.10
2018-03-19T16:38:41.785Z,82.10
2018-03-19T16:41:09.756Z,82.00
2018-03-19T16:43:37.634Z,82.00
2018-03-19T16:46:05.302Z,82.00
2018-03-19T16:48:33.017Z,82.10
2018-03-19T16:51:01.639Z,82.40
2018-03-19T16:53:30.119Z,82.30
2018-03-19T16:55:58.205Z,82.20
2018-03-19T16:58:25.890Z,82.70
2018-03-19T17:00:53.820Z,83.80
2018-03-19T17:03:21.631Z,83.50
2018-03-19T17:05:50.147Z,82.50
2018-03-19T17:08:17.982Z,82.40
2018-03-19T17:10:46.775Z,82.40
2018-03-19T17:13:14.534Z,82.20
2018-03-19T17:15:43.161Z,83.10
2018-03-19T17:18:11.068Z,82.90
2018-03-19T17:20:38.921Z,83.20
2018-03-19T17:23:07.693Z,83.40
2018-03-19T17:25:35.883Z,83.50
2018-03-19T17:28:04.148Z,83.90
2018-03-19T17:30:32.459Z,82.70
2018-03-19T17:33:00.694Z,83.40
2018-03-19T17:35:28.746Z,84.10
2018-03-19T17:37:57.224Z,83.30
2018-03-19T17:40:25.193Z,83.70
2018-03-19T17:42:53.280Z,84.00
2018-03-19T17:45:20.925Z,84.80
2018-03-19T17:47:49.162Z,84.30
2018-03-19T17:50:17.055Z,84.00
2018-03-19T17:52:44.801Z,84.20
2018-03-19T17:55:12.895Z,83.40
2018-03-19T17:57:40.623Z,83.90
2018-03-19T18:00:08.946Z,83.70
2018-03-19T18:02:36.747Z,84.20
2018-03-19T18:05:04.307Z,84.20
2018-03-19T18:07:32.576Z,84.40
2018-03-19T18:10:00.211Z,84.20
2018-03-19T18:12:27.775Z,84.40
2018-03-19T18:14:55.648Z,84.50
2018-03-19T18:17:23.576Z,84.70
2018-03-19T18:19:51.171Z,84.90
2018-03-19T18:22:18.911Z,84.70
2018-03-19T18:24:46.496Z,85.20
2018-03-19T18:27:14.087Z,84.80
2018-03-19T18:29:41.706Z,84.90
2018-03-19T18:32:09.278Z,84.40
2018-03-19T18:34:36.836Z,84.50
2018-03-19T18:37:04.783Z,85.00
2018-03-19T18:39:32.535Z,85.20
2018-03-19T18:42:00.270Z,85.40
2018-03-19T18:44:28.059Z,85.10
2018-03-19T18:46:55.906Z,84.20
2018-03-19T18:49:23.538Z,84.70
2018-03-19T18:51:52.068Z,85.00
2018-03-19T18:54:19.627Z,84.90
2018-03-19T18:56:47.524Z,85.00
2018-03-19T18:59:15.656Z,85.80
2018-03-19T19:01:43.729Z,85.30
2018-03-19T19:04:12.318Z,85.40
2018-03-19T19:06:40.309Z,85.20
2018-03-19T19:09:08.287Z,84.80
2018-03-19T19:11:36.313Z,84.90
2018-03-19T19:14:04.412Z,85.20
2018-03-19T19:16:32.327Z,85.40
2018-03-19T19:19:00.208Z,85.40
2018-03-19T19:21:27.979Z,85.30
2018-03-19T19:23:55.679Z,85.70
2018-03-19T19:26:23.348Z,86.10
2018-03-19T19:28:51.213Z,85.60
2018-03-19T19:31:19.083Z,85.60
2018-03-19T19:33:47.769Z,85.50
2018-03-19T19:36:17.131Z,85.40
2018-03-19T19:38:44.733Z,86.20
2018-03-19T19:41:13.193Z,85.50
2018-03-19T19:43:41.072Z,85.50
2018-03-19T19:46:09.956Z,85.40
2018-03-19T19:48:37.627Z,86.10
2018-03-19T19:51:06.129Z,86.50
2018-03-19T19:53:33.981Z,85.70
2018-03-19T19:56:02.339Z,86.00
2018-03-19T19:58:30.952Z,86.00
2018-03-19T20:00:58.735Z,85.90
2018-03-19T20:03:26.811Z,85.50
2018-03-19T20:05:54.625Z,85.50
2018-03-19T20:08:22.329Z,85.20
2018-03-19T20:10:50.410Z,85.40
2018-03-19T20:13:18.615Z,85.60
2018-03-19T20:15:46.272Z,86.30
2018-03-19T20:18:14.414Z,86.00
2018-03-19T20:20:42.392Z,85.30
2018-03-19T20:23:10.566Z,86.10
2018-03-19T20:25:38.231Z,85.90
2018-03-19T20:28:06.098Z,85.60
2018-03-19T20:30:33.992Z,86.50
2018-03-19T20:33:02.868Z,86.00
2018-03-19T20:35:30.905Z,86.00
2018-03-19T20:37:58.503Z,86.00
2018-03-19T20:40:26.231Z,86.60
2018-03-19T20:42:55.550Z,86.40
2018-03-19T20:45:23.957Z,87.00
2018-03-19T20:47:51.938Z,87.00
2018-03-19T20:50:21.577Z,85.70
2018-03-19T20:52:49.734Z,85.70
2018-03-19T20:55:19.012Z,86.50
2018-03-19T20:57:47.760Z,86.70
2018-03-19T21:00:15.678Z,86.70
2018-03-19T21:02:43.417Z,86.50
2018-03-19T21:05:11.842Z,86.40
2018-03-19T21:07:39.504Z,86.40
2018-03-19T21:10:07.375Z,86.00
2018-03-19T21:12:35.257Z,86.00
2018-03-19T21:15:03.510Z,86.30
2018-03-19T21:17:31.398Z,86.00
2018-03-19T21:19:59.110Z,86.30
2018-03-19T21:22:26.690Z,86.40
2018-03-19T21:24:54.594Z,86.40
2018-03-19T21:27:22.812Z,86.00
2018-03-19T21:29:50.614Z,86.20
2018-03-19T21:32:18.823Z,86.40
2018-03-19T21:34:46.848Z,86.90
2018-03-19T21:37:14.616Z,86.90
2018-03-19T21:39:42.232Z,86.40
2018-03-19T21:42:10.677Z,86.00
2018-03-19T21:44:38.763Z,86.00
2018-03-19T21:47:07.255Z,87.70
2018-03-19T21:49:35.717Z,86.00
2018-03-19T21:52:03.381Z,86.00
2018-03-19T21:54:31.031Z,87.00
2018-03-19T21:56:58.688Z,86.40
2018-03-19T21:59:26.356Z,86.20
2018-03-19T22:01:54.323Z,85.90
2018-03-19T22:04:22.083Z,86.60
2018-03-19T22:06:49.644Z,86.20
2018-03-19T22:09:17.353Z,85.90
2018-03-19T22:11:45.131Z,86.90
2018-03-19T22:14:12.689Z,87.10
2018-03-19T22:16:40.244Z,87.00
2018-03-19T22:19:07.895Z,86.60
2018-03-19T22:21:35.894Z,87.00
2018-03-19T22:24:03.462Z,87.40
2018-03-19T22:26:31.208Z,86.70
2018-03-19T22:28:59.350Z,86.10
2018-03-19T22:31:27.369Z,86.40
2018-03-19T22:33:54.964Z,86.00
2018-03-19T22:36:22.643Z,86.90
2018-03-19T22:38:50.210Z,87.20
2018-03-19T22:41:17.792Z,86.90
2018-03-19T22:43:45.490Z,87.50
2018-03-19T22:46:13.855Z,86.70
2018-03-19T22:48:41.822Z,86.80
2018-03-19T22:51:09.626Z,87.00
2018-03-19T22:53:37.185Z,86.30
2018-03-19T22:56:04.788Z,86.80
2018-03-19T22:58:32.438Z,86.30
2018-03-19T23:01:00.009Z,86.30
2018-03-19T23:03:28.074Z,86.50
2018-03-19T23:05:55.629Z,87.10
2018-03-19T23:08:23.505Z,86.80
2018-03-19T23:10:51.108Z,87.00
2018-03-19T23:13:18.653Z,87.40
2018-03-19T23:15:46.973Z,87.00
2018-03-19T23:18:14.813Z,87.00
2018-03-19T23:20:42.625Z,86.80
2018-03-19T23:23:10.192Z,87.20
2018-03-19T23:25:38.123Z,87.50
2018-03-19T23:28:05.681Z,87.10
2018-03-19T23:30:33.487Z,87.50
2018-03-19T23:33:01.370Z,86.90
2018-03-19T23:35:29.969Z,87.00
2018-03-19T23:37:57.662Z,87.00
2018-03-19T23:40:25.267Z,87.20
2018-03-19T23:42:52.953Z,87.40
2018-03-19T23:45:20.501Z,87.40
2018-03-19T23:47:49.141Z,87.30
2018-03-19T23:50:16.718Z,87.30
2018-03-19T23:52:44.634Z,87.40
2018-03-19T23:55:12.307Z,87.20
2018-03-19T23:57:39.977Z,87.50
